Time;durP1;ratioP1;P1;durP2;ratioP2;P2;SDS_P1;SDS_P2;PMS_P1;PMS_P2;Temp;Humidity;BMP_temperature;BMP_pressure;BME280_temperature;BME280_humidity;BME280_pressure;Samples;Min_cycle;Max_cycle;Signal;HPM_P1;HPM_P2
2022/08/23 00:00:18;;;;;;;5.90;4.63;;;;;;;18.37;91.74;100559.00;693243;28;1515;-40
2022/08/23 00:00:39;;;;;;;5.57;4.50;;;;;;;18.41;91.37;100562.41;692827;28;1516;-41
2022/08/23 00:00:59;;;;;;;6.93;4.83;;;;;;;18.41;91.36;100559.75;692735;28;4794;-45
2022/08/23 00:01:23;;;;;;;6.63;4.43;;;;;;;18.43;90.94;100561.41;693117;28;1294;-42
2022/08/23 00:01:45;;;;;;;6.97;4.68;;;;;;;18.45;91.31;100561.34;692602;28;1272;-40
2022/08/23 00:02:08;;;;;;;6.10;4.80;;;;;;;18.42;91.82;100562.34;692673;28;1139;-41
2022/08/23 00:02:29;;;;;;;6.55;4.80;;;;;;;18.39;91.00;100562.47;692184;28;1123;-41
2022/08/23 00:02:50;;;;;;;7.17;4.20;;;;;;;18.35;91.85;100553.78;692394;28;1177;-41
2022/08/23 00:03:10;;;;;;;6.60;4.47;;;;;;;18.26;92.00;100556.75;693412;28;1267;-42
2022/08/23 00:03:31;;;;;;;5.23;4.43;;;;;;;18.26;92.32;100564.69;693596;28;1209;-41
2022/08/23 00:03:53;;;;;;;6.07;4.60;;;;;;;18.20;93.12;100560.50;692220;28;4910;-46
2022/08/23 00:04:26;;;;;;;6.55;4.90;;;;;;;18.12;94.04;100561.72;693032;28;1183;-41
2022/08/23 00:04:47;;;;;;;6.03;4.50;;;;;;;18.07;93.23;100555.75;691639;28;1175;-41
2022/08/23 00:05:08;;;;;;;6.47;4.70;;;;;;;18.04;93.72;100562.88;693388;28;1315;-40
2022/08/23 00:05:30;;;;;;;6.38;4.90;;;;;;;18.00;93.59;100552.50;691857;28;1203;-41
2022/08/23 00:05:50;;;;;;;6.78;4.63;;;;;;;18.04;93.07;100560.25;692686;28;1163;-41
2022/08/23 00:06:11;;;;;;;6.67;4.77;;;;;;;18.09;92.81;100556.56;693574;28;1175;-40
2022/08/23 00:06:32;;;;;;;6.05;4.90;;;;;;;18.08;93.04;100558.31;693367;28;1158;-41
2022/08/23 00:06:53;;;;;;;5.80;4.60;;;;;;;18.03;93.46;100560.31;692704;28;4425;-40
2022/08/23 00:07:15;;;;;;;6.13;4.68;;;;;;;17.99;93.34;100559.53;693093;28;1258;-41
2022/08/23 00:07:41;;;;;;;7.35;4.88;;;;;;;18.02;93.78;100559.41;692638;28;1174;-41
2022/08/23 00:08:02;;;;;;;5.68;4.53;;;;;;;18.03;93.79;100555.00;693746;28;1170;-41
2022/08/23 00:08:23;;;;;;;5.93;4.80;;;;;;;18.01;94.56;100556.84;692012;28;1106;-40
2022/08/23 00:08:47;;;;;;;6.72;4.95;;;;;;;17.96;94.76;100553.53;693284;28;1104;-44
2022/08/23 00:09:09;;;;;;;6.82;4.72;;;;;;;17.89;94.92;100555.50;693505;28;1223;-40
2022/08/23 00:09:29;;;;;;;5.90;4.90;;;;;;;17.94;93.72;100550.06;693275;28;1135;-42
2022/08/23 00:09:50;;;;;;;5.80;4.33;;;;;;;17.97;93.38;100560.50;692305;28;4374;-42
2022/08/23 00:10:14;;;;;;;6.80;4.72;;;;;;;17.94;94.81;100553.56;693760;28;1261;-40
2022/08/23 00:10:34;;;;;;;6.80;4.90;;;;;;;17.81;95.78;100552.28;693277;28;1253;-41
2022/08/23 00:10:55;;;;;;;6.25;4.90;;;;;;;17.75;95.48;100552.47;692094;28;1230;-42
2022/08/23 00:11:39;;;;;;;6.40;4.80;;;;;;;17.84;95.23;100552.16;694286;28;1226;-42
2022/08/23 00:12:13;;;;;;;5.78;4.40;;;;;;;17.82;94.34;100561.91;691324;28;1149;-42
2022/08/23 00:12:34;;;;;;;5.72;4.72;;;;;;;17.82;94.84;100554.84;690677;28;1191;-41
2022/08/23 00:12:55;;;;;;;6.93;4.78;;;;;;;17.79;94.99;100559.38;690252;28;4536;-41
2022/08/23 00:13:16;;;;;;;6.30;4.45;;;;;;;17.78;95.00;100570.91;690926;28;1251;-40
2022/08/23 00:13:36;;;;;;;6.53;4.60;;;;;;;17.76;95.19;100556.84;689584;28;1376;-42
2022/08/23 00:13:59;;;;;;;6.05;4.55;;;;;;;17.81;93.49;100554.91;690720;28;1416;-43
2022/08/23 00:14:26;;;;;;;5.40;4.50;;;;;;;17.79;95.31;100552.31;690143;28;1871;-43
2022/08/23 00:14:51;;;;;;;6.13;4.57;;;;;;;17.83;93.51;100550.41;690364;28;2288;-41
2022/08/23 00:15:14;;;;;;;5.82;4.50;;;;;;;17.94;92.62;100558.84;690091;28;1326;-42
2022/08/23 00:15:35;;;;;;;6.70;4.65;;;;;;;18.00;92.25;100552.50;691035;28;1381;-40
2022/08/23 00:15:55;;;;;;;5.93;4.65;;;;;;;18.05;92.85;100558.44;688864;28;4552;-43
2022/08/23 00:16:16;;;;;;;6.27;4.90;;;;;;;18.08;93.22;100553.03;688236;28;3617;-41
2022/08/23 00:16:37;;;;;;;5.53;4.78;;;;;;;18.10;92.85;100561.78;689637;28;1552;-40
2022/08/23 00:16:58;;;;;;;5.53;4.75;;;;;;;18.08;93.87;100553.03;690605;28;1063;-43
2022/08/23 00:17:19;;;;;;;6.63;4.65;;;;;;;18.04;94.02;100557.59;691262;28;1512;-40
2022/08/23 00:17:41;;;;;;;6.25;4.55;;;;;;;18.02;93.77;100554.13;691427;28;1344;-40
2022/08/23 00:18:01;;;;;;;5.85;4.50;;;;;;;18.02;93.27;100554.13;695688;28;1238;-45
2022/08/23 00:18:23;;;;;;;5.47;4.80;;;;;;;17.98;94.71;100556.97;693415;28;1223;-42
2022/08/23 00:18:43;;;;;;;5.70;4.80;;;;;;;17.95;94.11;100554.44;688158;28;1244;-41
2022/08/23 00:19:06;;;;;;;5.83;4.80;;;;;;;17.95;94.35;100551.78;685346;28;4377;-41
2022/08/23 00:19:27;;;;;;;5.72;4.40;;;;;;;17.88;95.21;100551.13;685436;28;1273;-41
2022/08/23 00:19:47;;;;;;;6.38;4.60;;;;;;;17.84;95.15;100560.94;685978;28;1148;-40
2022/08/23 00:20:12;;;;;;;6.63;4.63;;;;;;;17.85;94.36;100551.25;686052;28;1366;-43
2022/08/23 00:20:32;;;;;;;6.85;5.00;;;;;;;17.83;96.07;100558.34;687960;28;1418;-41
2022/08/23 00:20:52;;;;;;;7.07;5.07;;;;;;;17.75;97.15;100550.72;692281;28;1306;-40
2022/08/23 00:21:16;;;;;;;6.75;4.90;;;;;;;17.69;97.14;100559.72;692700;28;1337;-41
2022/08/23 00:21:38;;;;;;;6.00;4.70;;;;;;;17.74;94.86;100548.97;693919;28;1353;-41
2022/08/23 00:21:58;;;;;;;5.95;4.63;;;;;;;17.77;95.91;100553.31;692309;28;4425;-41
2022/08/23 00:22:19;;;;;;;7.03;4.63;;;;;;;17.79;95.13;100552.31;693625;28;1477;-41
2022/08/23 00:22:39;;;;;;;6.33;4.83;;;;;;;17.78;96.29;100550.59;693580;28;1405;-43
2022/08/23 00:23:00;;;;;;;7.10;5.30;;;;;;;17.77;96.17;100548.88;693377;28;1174;-41
2022/08/23 00:23:20;;;;;;;7.03;5.40;;;;;;;17.72;96.93;100552.59;693613;28;1523;-40
2022/08/23 00:23:41;;;;;;;7.57;5.47;;;;;;;17.63;97.70;100557.28;693153;28;1773;-40
2022/08/23 00:24:02;;;;;;;7.50;5.10;;;;;;;17.56;98.46;100555.78;690288;28;1235;-41
2022/08/23 00:24:24;;;;;;;7.95;5.40;;;;;;;17.49;98.89;100555.16;690907;28;1317;-41
2022/08/23 00:24:44;;;;;;;6.03;5.20;;;;;;;17.45;99.13;100548.25;691170;28;1273;-41
2022/08/23 00:25:07;;;;;;;6.15;5.10;;;;;;;17.46;98.32;100554.38;690421;28;4455;-42
2022/08/23 00:25:28;;;;;;;6.38;4.88;;;;;;;17.47;98.55;100554.34;691014;28;1283;-42
2022/08/23 00:25:48;;;;;;;7.55;5.10;;;;;;;17.45;99.12;100553.53;689249;28;1270;-41
2022/08/23 00:26:09;;;;;;;6.50;5.50;;;;;;;17.46;97.88;100557.91;685588;28;1200;-40
2022/08/23 00:26:49;;;;;;;6.68;5.20;;;;;;;17.61;95.86;100550.34;687886;28;1421;-41
2022/08/23 00:27:13;;;;;;;6.68;4.63;;;;;;;17.72;95.46;100545.50;685516;28;1523;-41
2022/08/23 00:27:34;;;;;;;6.72;4.80;;;;;;;17.77;95.77;100548.00;688612;28;1370;-41
2022/08/23 00:27:54;;;;;;;6.82;4.70;;;;;;;17.83;95.35;100547.78;690025;28;4430;-40
2022/08/23 00:28:14;;;;;;;6.60;4.60;;;;;;;17.85;94.87;100548.59;692553;28;1278;-40
2022/08/23 00:28:35;;;;;;;6.50;4.90;;;;;;;17.84;94.92;100542.41;692136;28;1345;-40
2022/08/23 00:28:55;;;;;;;7.05;5.03;;;;;;;17.84;95.06;100546.88;690065;28;1227;-42
2022/08/23 00:29:17;;;;;;;7.47;5.00;;;;;;;17.84;94.77;100549.50;691182;28;1367;-41
2022/08/23 00:29:41;;;;;;;6.93;4.90;;;;;;;17.80;96.42;100545.25;687653;28;1493;-40
2022/08/23 00:30:05;;;;;;;6.10;5.00;;;;;;;17.68;97.40;100550.06;688302;28;1178;-41
2022/08/23 00:30:25;;;;;;;6.20;4.82;;;;;;;17.59;98.38;100547.75;690136;28;1251;-41
2022/08/23 00:30:46;;;;;;;7.68;4.80;;;;;;;17.55;98.08;100547.91;689542;28;1304;-43
2022/08/23 00:31:06;;;;;;;7.23;4.90;;;;;;;17.55;98.05;100551.41;690072;28;4770;-41
2022/08/23 00:31:27;;;;;;;6.60;5.00;;;;;;;17.55;97.63;100543.50;688362;28;1219;-42
2022/08/23 00:31:47;;;;;;;6.70;4.80;;;;;;;17.57;97.69;100546.97;690369;28;1285;-40
2022/08/23 00:32:13;;;;;;;6.10;4.75;;;;;;;17.57;97.54;100544.31;689849;28;1266;-43
2022/08/23 00:32:37;;;;;;;6.47;4.80;;;;;;;17.61;96.24;100548.56;691023;28;1354;-42
2022/08/23 00:32:57;;;;;;;6.40;4.88;;;;;;;17.69;95.42;100540.34;691159;28;1504;-42
2022/08/23 00:33:17;;;;;;;6.60;4.87;;;;;;;17.73;95.90;100543.75;691815;28;1378;-41
2022/08/23 00:33:38;;;;;;;5.85;4.82;;;;;;;17.76;95.16;100541.00;692609;28;1183;-42
2022/08/23 00:33:58;;;;;;;5.93;4.97;;;;;;;17.79;94.84;100540.88;691906;28;4435;-41
2022/08/23 00:34:20;;;;;;;6.07;5.00;;;;;;;17.84;94.09;100536.28;693746;28;1574;-41
2022/08/23 00:34:41;;;;;;;6.57;4.80;;;;;;;17.92;93.78;100538.69;691541;28;1633;-41
2022/08/23 00:35:03;;;;;;;5.50;4.70;;;;;;;17.92;95.10;100542.19;690588;28;1922;-46
2022/08/23 00:35:23;;;;;;;5.65;5.05;;;;;;;17.85;96.16;100536.22;691113;28;1231;-41
2022/08/23 00:35:44;;;;;;;5.90;5.10;;;;;;;17.79;96.37;100540.88;687538;28;1313;-41
2022/08/23 00:36:04;;;;;;;7.03;4.88;;;;;;;17.76;96.72;100535.69;686671;28;1196;-42
2022/08/23 00:36:25;;;;;;;7.67;5.13;;;;;;;17.65;97.64;100536.97;688148;28;1234;-41
2022/08/23 00:36:45;;;;;;;7.37;5.10;;;;;;;17.60;97.63;100541.56;690499;28;1284;-41
2022/08/23 00:37:07;;;;;;;6.20;5.18;;;;;;;17.53;98.40;100545.34;691287;28;4352;-41
2022/08/23 00:37:30;;;;;;;6.10;5.05;;;;;;;17.45;99.41;100539.47;690866;28;1359;-42
2022/08/23 00:37:51;;;;;;;6.80;5.15;;;;;;;17.34;99.98;100538.03;692747;28;1414;-42
2022/08/23 00:38:11;;;;;;;6.30;5.30;;;;;;;17.32;99.84;100536.38;690296;28;1315;-41
2022/08/23 00:38:32;;;;;;;6.13;5.20;;;;;;;17.38;97.61;100538.81;688613;28;1424;-42
2022/08/23 00:38:52;;;;;;;6.30;4.90;;;;;;;17.47;96.94;100537.59;688703;28;4851;-42
2022/08/23 00:39:12;;;;;;;6.00;4.60;;;;;;;17.49;98.39;100538.44;691524;28;1335;-41
2022/08/23 00:39:33;;;;;;;6.15;4.80;;;;;;;17.39;99.56;100531.72;693488;28;1539;-43
2022/08/23 00:39:54;;;;;;;6.43;5.10;;;;;;;17.32;99.63;100537.25;692822;28;4292;-40
2022/08/23 00:40:17;;;;;;;6.57;4.97;;;;;;;17.28;100.00;100532.97;693243;28;1515;-41
2022/08/23 00:40:37;;;;;;;6.55;5.28;;;;;;;17.28;99.88;100535.63;693511;28;964;-40
2022/08/23 00:40:58;;;;;;;6.95;5.30;;;;;;;17.26;100.00;100537.44;694391;28;1432;-40
2022/08/23 00:41:18;;;;;;;6.53;5.30;;;;;;;17.24;100.00;100539.28;694442;28;1316;-40
2022/08/23 00:41:39;;;;;;;6.35;5.00;;;;;;;17.22;100.00;100529.69;693251;28;1578;-41
2022/08/23 00:47:40;;;;;;;7.63;5.10;;;;;;;17.21;99.20;100531.47;693013;28;1523;-41
2022/08/23 00:48:02;;;;;;;7.10;4.88;;;;;;;17.21;100.00;100538.53;690353;28;1401;-41
2022/08/23 00:48:23;;;;;;;6.45;5.32;;;;;;;17.15;100.00;100534.31;686762;28;1369;-41
2022/08/23 00:48:45;;;;;;;7.47;5.20;;;;;;;17.16;100.00;100536.03;688062;28;1287;-42
2022/08/23 00:49:09;;;;;;;7.05;5.00;;;;;;;17.18;99.65;100536.84;687805;28;4355;-48
2022/08/23 00:49:32;;;;;;;7.97;5.10;;;;;;;17.16;99.59;100538.69;684981;28;1212;-41
2022/08/23 00:50:05;;;;;;;7.35;5.10;;;;;;;17.14;100.00;100532.56;688005;28;1224;-42
2022/08/23 00:50:36;;;;;;;6.22;5.13;;;;;;;17.14;99.79;100538.75;686479;28;2107;-41
2022/08/23 00:50:57;;;;;;;6.20;4.75;;;;;;;17.15;99.34;100537.81;688028;28;1694;-41
2022/08/23 00:51:41;;;;;;;6.73;5.20;;;;;;;17.22;99.74;100538.47;690018;28;1439;-42
2022/08/23 00:52:26;;;;;;;6.60;5.05;;;;;;;17.18;100.00;100532.44;685365;28;4348;-44
2022/08/23 00:53:02;;;;;;;6.10;5.15;;;;;;;17.20;99.33;100537.66;678572;29;1220;-42
2022/08/23 00:53:26;;;;;;;6.82;5.20;;;;;;;17.21;100.00;100538.53;693137;28;1515;-41
2022/08/23 00:53:54;;;;;;;6.85;5.20;;;;;;;17.18;99.36;100534.19;692266;28;1242;-42
2022/08/23 00:54:15;;;;;;;6.53;4.90;;;;;;;17.19;99.55;100535.94;691207;28;1310;-41
2022/08/23 00:54:40;;;;;;;6.28;4.80;;;;;;;17.12;100.00;100531.78;692601;28;1318;-41
2022/08/23 00:55:00;;;;;;;6.22;4.90;;;;;;;17.01;100.00;100543.56;692294;28;4420;-42
2022/08/23 00:55:21;;;;;;;6.70;5.03;;;;;;;16.95;100.00;100537.63;692164;28;1599;-43
2022/08/23 00:55:44;;;;;;;7.20;5.50;;;;;;;16.96;100.00;100539.34;692293;28;1282;-45
2022/08/23 00:56:08;;;;;;;6.88;5.22;;;;;;;17.08;99.69;100533.66;693541;28;1163;-42
2022/08/23 00:56:34;;;;;;;8.25;5.40;;;;;;;17.05;100.00;100539.03;690202;28;2078;-41
2022/08/23 00:56:56;;;;;;;5.82;5.10;;;;;;;16.98;100.00;100541.03;689511;28;1338;-41
2022/08/23 00:57:18;;;;;;;6.53;5.03;;;;;;;17.02;100.00;100545.28;689288;28;1823;-43
2022/08/23 00:57:38;;;;;;;7.53;5.13;;;;;;;17.04;100.00;100542.59;686550;28;1210;-41
2022/08/23 00:58:00;;;;;;;6.17;5.20;;;;;;;17.02;100.00;100544.44;689822;28;4543;-41
2022/08/23 00:58:21;;;;;;;6.85;4.88;;;;;;;17.04;100.00;100545.22;689710;28;1448;-41
2022/08/23 00:58:44;;;;;;;7.60;5.43;;;;;;;16.98;100.00;100543.66;689105;28;1426;-41
2022/08/23 00:59:06;;;;;;;6.85;5.13;;;;;;;17.04;99.29;100544.38;689709;28;1119;-42
2022/08/23 00:59:27;;;;;;;6.25;5.00;;;;;;;17.05;99.37;100544.31;691810;28;1414;-43
2022/08/23 00:59:48;;;;;;;6.63;5.03;;;;;;;17.04;99.61;100536.47;692135;28;1192;-40
2022/08/23 01:00:09;;;;;;;6.73;4.93;;;;;;;17.03;99.27;100540.88;689534;28;1387;-42
2022/08/23 01:00:31;;;;;;;7.15;5.10;;;;;;;17.04;100.00;100542.59;687681;28;1251;-42
2022/08/23 01:00:54;;;;;;;7.50;5.30;;;;;;;17.00;100.00;100538.31;687137;28;4434;-42
2022/08/23 01:01:15;;;;;;;6.40;5.18;;;;;;;16.96;100.00;100542.88;688580;28;1215;-42
2022/08/23 01:01:35;;;;;;;6.32;5.25;;;;;;;17.00;100.00;100538.31;687904;28;1167;-40
2022/08/23 01:01:56;;;;;;;6.28;5.22;;;;;;;17.05;99.60;100548.75;688391;28;1083;-41
2022/08/23 01:02:17;;;;;;;6.38;5.00;;;;;;;17.05;99.90;100539.03;691148;28;1232;-41
2022/08/23 01:02:39;;;;;;;6.50;5.18;;;;;;;17.04;99.90;100547.03;691367;28;1166;-41
2022/08/23 01:03:02;;;;;;;6.55;5.15;;;;;;;17.09;98.78;100542.47;692465;28;1168;-42
2022/08/23 01:03:25;;;;;;;5.63;4.90;;;;;;;17.02;100.00;100541.78;693363;28;1180;-41
2022/08/23 01:03:51;;;;;;;6.40;5.00;;;;;;;16.91;100.00;100542.16;692536;28;1227;-41
2022/08/23 01:04:12;;;;;;;7.30;5.10;;;;;;;16.80;100.00;100542.47;691837;28;4740;-42
2022/08/23 01:04:39;;;;;;;8.05;5.40;;;;;;;16.75;100.00;100543.53;693521;28;1293;-41
2022/08/23 01:05:00;;;;;;;6.72;5.25;;;;;;;16.69;100.00;100542.81;691364;28;1295;-44
2022/08/23 01:05:25;;;;;;;6.93;5.30;;;;;;;16.72;100.00;100551.56;689906;28;1412;-40
2022/08/23 01:05:52;;;;;;;6.22;5.03;;;;;;;16.78;100.00;100543.41;690079;28;1142;-41
2022/08/23 01:06:17;;;;;;;6.70;5.28;;;;;;;16.79;100.00;100550.44;687581;28;1025;-41
2022/08/23 01:06:49;;;;;;;6.03;5.05;;;;;;;16.82;100.00;100543.28;685323;28;1204;-43
2022/08/23 01:07:13;;;;;;;6.22;5.20;;;;;;;16.84;100.00;100545.88;685569;28;5862;-42
2022/08/23 01:07:54;;;;;;;5.93;5.13;;;;;;;16.85;100.00;100550.25;686743;28;1274;-41
2022/08/23 01:08:15;;;;;;;8.00;5.15;;;;;;;16.90;99.89;100550.13;688883;28;1188;-40
2022/08/23 01:08:37;;;;;;;7.63;5.18;;;;;;;16.88;100.00;100547.50;688859;28;1309;-41
2022/08/23 01:09:01;;;;;;;6.85;5.38;;;;;;;16.86;100.00;100549.31;688637;28;2102;-40
2022/08/23 01:09:22;;;;;;;6.57;5.43;;;;;;;16.87;100.00;100550.19;683999;28;1489;-41
2022/08/23 01:09:45;;;;;;;7.55;5.50;;;;;;;16.87;100.00;100553.69;684074;28;1214;-42
2022/08/23 01:10:15;;;;;;;7.70;5.22;;;;;;;16.92;100.00;100553.56;684308;28;4342;-39
2022/08/23 01:10:46;;;;;;;7.28;5.00;;;;;;;16.89;100.00;100551.91;687258;28;1287;-39
2022/08/23 01:11:15;;;;;;;6.28;4.93;;;;;;;16.84;100.00;100551.16;687477;28;1223;-41
2022/08/23 01:11:41;;;;;;;6.47;5.05;;;;;;;16.83;100.00;100554.69;687613;28;1258;-40
2022/08/23 01:12:08;;;;;;;6.78;5.20;;;;;;;16.84;100.00;100553.81;685155;28;1152;-42
2022/08/23 01:12:35;;;;;;;6.70;5.13;;;;;;;16.77;100.00;100553.13;685788;28;3694;-39
2022/08/23 01:13:02;;;;;;;7.00;5.35;;;;;;;16.67;100.00;100549.06;688450;28;4549;-41
2022/08/23 01:13:31;;;;;;;6.85;5.00;;;;;;;16.71;100.00;100550.66;689856;28;1380;-42
2022/08/23 01:13:57;;;;;;;6.53;5.20;;;;;;;16.72;100.00;100554.19;691838;28;1396;-40
2022/08/23 01:14:22;;;;;;;7.45;5.10;;;;;;;16.79;99.99;100553.06;692410;28;1290;-40
2022/08/23 01:14:53;;;;;;;6.90;5.10;;;;;;;16.77;100.00;100547.00;693084;28;1298;-39
2022/08/23 01:15:23;;;;;;;6.05;5.20;;;;;;;16.76;100.00;100553.19;693825;28;1215;-40
2022/08/23 01:15:55;;;;;;;6.50;5.30;;;;;;;16.72;100.00;100551.56;694766;28;1516;-41
2022/08/23 01:16:23;;;;;;;7.18;5.22;;;;;;;16.70;100.00;100554.25;695572;28;5795;-42
2022/08/23 01:16:51;;;;;;;6.05;5.07;;;;;;;16.67;100.00;100549.06;695200;28;1226;-41
2022/08/23 01:17:24;;;;;;;7.32;5.07;;;;;;;16.65;100.00;100551.72;696459;28;1306;-41
2022/08/23 01:17:49;;;;;;;6.55;5.22;;;;;;;16.65;100.00;100550.88;693350;28;1154;-40
2022/08/23 01:18:14;;;;;;;6.65;5.35;;;;;;;16.68;100.00;100556.06;692809;28;1401;-40
2022/08/23 01:18:36;;;;;;;6.20;5.40;;;;;;;16.67;100.00;100555.19;691369;28;1348;-41
2022/08/23 01:18:57;;;;;;;6.60;5.20;;;;;;;16.67;100.00;100549.91;691149;28;4316;-41
2022/08/23 01:19:52;;;;;;;7.00;5.23;;;;;;;16.65;100.00;100556.16;694202;28;1112;-39
2022/08/23 01:20:16;;;;;;;7.30;5.32;;;;;;;16.66;100.00;100553.47;681332;28;1627;-41
2022/08/23 01:20:54;;;;;;;6.13;5.10;;;;;;;16.69;100.00;100558.63;690427;28;1335;-40
2022/08/23 01:21:29;;;;;;;6.85;5.15;;;;;;;16.73;100.00;100555.94;693281;28;1389;-40
2022/08/23 01:22:03;;;;;;;6.10;4.90;;;;;;;16.68;100.00;100556.94;691573;28;5453;-40
2022/08/23 01:22:33;;;;;;;7.32;5.03;;;;;;;16.66;100.00;100553.47;692945;28;1186;-44
2022/08/23 01:23:21;;;;;;;6.97;5.30;;;;;;;16.63;100.00;100556.22;692707;28;1403;-40
2022/08/23 01:23:46;;;;;;;6.43;5.00;;;;;;;16.60;100.00;100551.03;692820;28;1174;-41
2022/08/23 01:24:09;;;;;;;6.95;4.90;;;;;;;16.61;100.00;100558.03;689983;28;1275;-40
2022/08/23 01:24:30;;;;;;;7.18;5.30;;;;;;;16.57;100.00;100553.75;684460;28;1450;-40
2022/08/23 01:24:52;;;;;;;6.68;5.47;;;;;;;16.54;100.00;100560.91;685742;28;4360;-42
2022/08/23 01:25:17;;;;;;;6.50;5.80;;;;;;;16.50;100.00;100557.50;686958;28;1422;-40
2022/08/23 01:25:38;;;;;;;7.40;5.43;;;;;;;16.56;100.00;100554.69;684206;28;1524;-41
2022/08/23 01:26:02;;;;;;;6.68;5.00;;;;;;;16.56;100.00;100552.03;686007;28;1358;-40
2022/08/23 01:26:25;;;;;;;6.78;5.13;;;;;;;16.60;100.00;100558.06;687008;28;1993;-40
2022/08/23 01:26:46;;;;;;;6.20;5.30;;;;;;;16.57;100.00;100556.38;686647;28;1204;-42
2022/08/23 01:27:11;;;;;;;6.30;5.20;;;;;;;16.59;100.00;100554.56;683889;28;1645;-40
2022/08/23 01:27:31;;;;;;;8.00;5.18;;;;;;;16.57;100.00;100553.75;686259;28;1357;-40
2022/08/23 01:27:52;;;;;;;7.70;5.37;;;;;;;16.56;100.00;100562.59;687127;28;4289;-41
2022/08/23 01:28:13;;;;;;;6.55;5.05;;;;;;;16.65;99.96;100562.28;687271;28;1504;-41
2022/08/23 01:28:34;;;;;;;7.05;4.95;;;;;;;16.69;100.00;100556.00;686024;28;1319;-42
2022/08/23 01:28:55;;;;;;;7.18;5.40;;;;;;;16.67;100.00;100563.13;689369;28;1357;-41
2022/08/23 01:29:16;;;;;;;6.63;5.27;;;;;;;16.67;100.00;100555.19;691452;28;1278;-43
2022/08/23 01:29:37;;;;;;;5.60;4.97;;;;;;;16.72;100.00;100562.09;691516;28;1487;-40
2022/08/23 01:29:57;;;;;;;6.45;5.47;;;;;;;16.74;100.00;100557.63;688688;28;1595;-42
2022/08/23 01:30:23;;;;;;;7.90;5.43;;;;;;;16.73;100.00;100555.94;688694;28;1274;-41
2022/08/23 01:30:45;;;;;;;7.45;5.35;;;;;;;16.65;100.00;100561.44;688560;28;1258;-43
2022/08/23 01:31:07;;;;;;;7.13;5.07;;;;;;;16.60;100.00;100558.94;686920;28;4287;-43
2022/08/23 01:31:28;;;;;;;6.88;5.20;;;;;;;16.67;100.00;100559.63;685235;28;1867;-40
2022/08/23 01:31:50;;;;;;;6.07;5.13;;;;;;;16.62;100.00;100557.13;684754;28;1628;-44
2022/08/23 01:32:11;;;;;;;6.60;5.20;;;;;;;16.50;100.00;100558.38;683397;28;1484;-41
2022/08/23 01:32:36;;;;;;;6.28;5.10;;;;;;;16.50;100.00;100555.75;682564;28;1342;-40
2022/08/23 01:33:01;;;;;;;5.70;5.10;;;;;;;16.51;100.00;100557.44;680940;28;1379;-40
2022/08/23 01:33:21;;;;;;;6.30;5.10;;;;;;;16.55;100.00;100558.22;680291;28;2095;-39
2022/08/23 01:33:45;;;;;;;6.65;5.30;;;;;;;16.61;100.00;100558.03;682756;28;1395;-40
2022/08/23 01:34:08;;;;;;;6.43;5.43;;;;;;;16.56;100.00;100567.00;682132;28;4385;-40
2022/08/23 01:34:29;;;;;;;7.95;5.57;;;;;;;16.57;100.00;100566.94;686732;28;1393;-42
2022/08/23 01:34:49;;;;;;;6.30;5.33;;;;;;;16.57;100.00;100559.03;685925;28;1914;-43
2022/08/23 01:35:11;;;;;;;6.43;5.17;;;;;;;16.60;100.00;100560.72;686831;28;1555;-40
2022/08/23 01:35:37;;;;;;;7.95;5.28;;;;;;;16.57;100.00;100556.38;684608;28;1248;-42
2022/08/23 01:35:58;;;;;;;6.07;5.03;;;;;;;16.59;100.00;100559.84;685779;28;1418;-39
2022/08/23 01:36:20;;;;;;;6.78;5.20;;;;;;;16.60;100.00;100561.59;681079;28;1501;-41
2022/08/23 01:36:44;;;;;;;6.93;5.40;;;;;;;16.53;100.00;100557.41;684744;28;1274;-41
2022/08/23 01:37:07;;;;;;;7.80;5.32;;;;;;;16.46;100.00;100558.50;684446;28;4364;-40
2022/08/23 01:37:27;;;;;;;7.72;5.53;;;;;;;16.48;100.00;100559.34;687483;28;1384;-41
2022/08/23 01:37:48;;;;;;;7.65;5.30;;;;;;;16.47;100.00;100553.19;685332;28;1279;-41
2022/08/23 01:38:11;;;;;;;7.30;5.17;;;;;;;16.48;100.00;100560.19;685764;28;1373;-40
2022/08/23 01:38:31;;;;;;;7.93;5.45;;;;;;;16.47;100.00;100565.50;684869;28;1410;-42
2022/08/23 01:38:52;;;;;;;7.70;5.53;;;;;;;16.44;100.00;100553.28;684142;28;5112;-40
2022/08/23 01:39:12;;;;;;;7.10;5.47;;;;;;;16.46;100.00;100563.78;687708;28;1311;-42
2022/08/23 01:39:34;;;;;;;7.35;5.28;;;;;;;16.46;100.00;100564.66;688626;28;1318;-43
2022/08/23 01:39:56;;;;;;;7.40;5.10;;;;;;;16.46;100.00;100558.50;686061;28;4342;-40
2022/08/23 01:40:16;;;;;;;7.13;5.27;;;;;;;16.43;100.00;100564.72;687108;28;1540;-41
2022/08/23 01:40:38;;;;;;;7.22;5.30;;;;;;;16.40;100.00;100556.06;685905;28;1502;-43
2022/08/23 01:41:00;;;;;;;6.75;5.30;;;;;;;16.36;100.00;100557.06;683008;28;1577;-42
2022/08/23 01:41:20;;;;;;;7.27;5.30;;;;;;;16.38;100.00;100557.88;683906;28;1470;-40
2022/08/23 01:41:40;;;;;;;8.20;5.45;;;;;;;16.36;100.00;100555.28;684075;28;959;-41
2022/08/23 01:42:02;;;;;;;7.82;5.40;;;;;;;16.27;100.00;100561.72;685819;28;1254;-42
2022/08/23 01:42:23;;;;;;;7.43;5.45;;;;;;;16.29;100.00;100559.88;685961;28;1388;-40
2022/08/23 01:42:43;;;;;;;7.15;5.32;;;;;;;16.31;100.00;100558.06;688115;28;1265;-43
2022/08/23 01:43:06;;;;;;;8.10;5.75;;;;;;;16.31;100.00;100557.19;688067;28;5025;-43
2022/08/23 01:43:27;;;;;;;6.97;5.70;;;;;;;16.24;100.00;100555.66;689648;28;1349;-42
2022/08/23 01:43:48;;;;;;;6.07;5.47;;;;;;;16.22;100.00;100553.06;689640;28;1134;-41
2022/08/23 01:44:12;;;;;;;6.53;5.50;;;;;;;16.26;100.00;100553.84;689472;28;1413;-45
2022/08/23 01:44:34;;;;;;;7.32;5.57;;;;;;;16.31;100.00;100555.44;691307;28;1333;-42
2022/08/23 01:44:55;;;;;;;6.25;5.60;;;;;;;16.35;100.00;100558.81;690991;28;2064;-41
2022/08/23 01:45:16;;;;;;;5.80;5.20;;;;;;;16.40;100.00;100559.56;687062;28;1551;-43
2022/08/23 01:45:38;;;;;;;6.50;5.20;;;;;;;16.46;100.00;100551.47;687116;28;1502;-40
2022/08/23 01:46:08;;;;;;;6.95;5.13;;;;;;;16.45;100.00;100555.00;686852;28;4393;-43
2022/08/23 01:46:28;;;;;;;6.60;5.32;;;;;;;16.44;100.00;100555.06;687170;28;1222;-41
2022/08/23 01:46:49;;;;;;;6.93;5.53;;;;;;;16.44;100.00;100555.06;688000;28;1551;-41
2022/08/23 01:47:10;;;;;;;6.67;5.40;;;;;;;16.52;100.00;100561.81;687278;28;1246;-41
2022/08/23 01:47:30;;;;;;;6.97;5.53;;;;;;;16.45;100.00;100556.81;686689;28;1327;-39
2022/08/23 01:47:52;;;;;;;6.95;5.18;;;;;;;16.40;100.00;100556.06;687845;28;1529;-43
2022/08/23 01:48:14;;;;;;;6.30;5.20;;;;;;;16.37;100.00;100557.03;685751;28;1836;-40
2022/08/23 01:48:35;;;;;;;7.03;5.40;;;;;;;16.38;100.00;100553.47;685746;28;1319;-41
2022/08/23 01:48:57;;;;;;;6.93;5.03;;;;;;;16.39;100.00;100557.81;685568;28;4383;-40
2022/08/23 01:49:20;;;;;;;7.15;5.20;;;;;;;16.38;100.00;100555.22;688647;28;1259;-43
2022/08/23 01:49:40;;;;;;;6.53;5.30;;;;;;;16.38;100.00;100555.22;690648;28;1527;-40
2022/08/23 01:50:01;;;;;;;6.82;5.32;;;;;;;16.44;100.00;100562.97;688874;28;1347;-40
2022/08/23 01:50:24;;;;;;;6.70;5.30;;;;;;;16.49;100.00;100555.75;690404;28;1339;-41
2022/08/23 01:50:45;;;;;;;6.60;5.60;;;;;;;16.45;100.00;100562.06;684631;28;1359;-39
2022/08/23 01:51:06;;;;;;;7.15;5.45;;;;;;;16.43;100.00;100559.47;681457;28;1378;-42
2022/08/23 01:51:28;;;;;;;7.75;5.30;;;;;;;16.44;100.00;100560.34;682035;28;1750;-39
2022/08/23 01:51:49;;;;;;;6.80;5.07;;;;;;;16.42;100.00;100560.38;683954;28;4417;-40
2022/08/23 01:52:09;;;;;;;6.87;5.13;;;;;;;16.49;100.00;100561.03;684679;28;1315;-46
2022/08/23 01:52:30;;;;;;;7.20;5.20;;;;;;;16.53;100.00;100565.31;685562;28;1436;-41
2022/08/23 01:52:50;;;;;;;7.10;5.47;;;;;;;16.51;100.00;100560.09;683570;28;1323;-41
2022/08/23 01:53:14;;;;;;;7.32;5.50;;;;;;;16.47;100.00;100558.44;683337;28;1366;-40
2022/08/23 01:53:39;;;;;;;6.28;5.28;;;;;;;16.42;100.00;100564.78;682428;28;1269;-43
2022/08/23 01:54:00;;;;;;;6.25;5.47;;;;;;;16.36;100.00;100565.84;685180;28;1418;-41
2022/08/23 01:54:21;;;;;;;6.35;5.40;;;;;;;16.38;100.00;100568.41;685318;28;1599;-46
2022/08/23 01:54:42;;;;;;;7.07;5.37;;;;;;;16.38;100.00;100569.31;686405;28;757;-42
2022/08/23 01:55:04;;;;;;;6.85;5.32;;;;;;;16.41;100.00;100568.34;684110;28;5326;-40
2022/08/23 01:55:25;;;;;;;8.38;5.53;;;;;;;16.44;100.00;100568.25;683973;28;1259;-42